createdAt,value
2017-08-15T00:02:16.954Z,19.40
2017-08-15T00:04:45.910Z,19.20
2017-08-15T00:07:14.884Z,19.20
2017-08-15T00:09:43.822Z,19.10
2017-08-15T00:12:12.768Z,19.20
2017-08-15T00:14:41.744Z,19.20
2017-08-15T00:17:10.697Z,19.30
2017-08-15T00:19:39.680Z,19.30
2017-08-15T00:22:08.658Z,19.20
2017-08-15T00:24:37.605Z,19.30
2017-08-15T00:27:06.562Z,19.30
2017-08-15T00:29:35.574Z,19.30
2017-08-15T00:32:04.511Z,19.20
2017-08-15T00:34:33.476Z,19.20
2017-08-15T00:37:02.427Z,19.20
2017-08-15T00:39:31.399Z,19.20
2017-08-15T00:42:01.148Z,19.10
2017-08-15T00:44:30.144Z,19.10
2017-08-15T00:46:59.087Z,19.10
2017-08-15T00:49:28.044Z,19.10
2017-08-15T00:51:57.000Z,19.00
2017-08-15T00:54:25.995Z,19.00
2017-08-15T00:56:55.072Z,18.80
2017-08-15T00:59:24.018Z,18.80
2017-08-15T01:01:52.980Z,18.80
2017-08-15T01:04:22.072Z,18.80
2017-08-15T01:06:51.007Z,18.60
2017-08-15T01:09:19.957Z,18.60
2017-08-15T01:11:48.927Z,18.60
2017-08-15T01:14:18.671Z,18.50
2017-08-15T01:16:47.637Z,18.50
2017-08-15T01:19:16.718Z,18.50
2017-08-15T01:21:45.746Z,18.50
2017-08-15T01:24:14.730Z,18.40
2017-08-15T01:26:43.671Z,18.40
2017-08-15T01:29:12.627Z,18.40
2017-08-15T01:31:41.566Z,18.30
2017-08-15T01:34:10.597Z,18.40
2017-08-15T01:36:39.530Z,18.40
2017-08-15T01:39:08.496Z,18.40
2017-08-15T01:41:37.437Z,18.30
2017-08-15T01:44:06.406Z,18.20
2017-08-15T01:46:35.362Z,18.20
2017-08-15T01:49:04.327Z,18.10
2017-08-15T01:51:33.298Z,18.10
2017-08-15T01:54:02.284Z,18.10
2017-08-15T01:56:31.236Z,17.90
2017-08-15T01:59:00.217Z,17.90
2017-08-15T02:01:29.171Z,17.90
2017-08-15T02:03:58.175Z,17.90
2017-08-15T02:06:27.885Z,17.90
2017-08-15T02:08:56.872Z,17.90
2017-08-15T02:11:26.604Z,17.90
2017-08-15T02:13:55.578Z,17.90
2017-08-15T02:16:25.280Z,17.80
2017-08-15T02:18:55.012Z,17.70
2017-08-15T02:21:23.968Z,17.70
2017-08-15T02:23:53.060Z,17.70
2017-08-15T02:26:22.068Z,17.80
2017-08-15T02:28:51.037Z,17.90
2017-08-15T02:31:20.037Z,17.90
2017-08-15T02:33:49.017Z,17.90
2017-08-15T02:36:17.997Z,17.80
2017-08-15T02:38:46.977Z,17.70
2017-08-15T02:41:15.921Z,17.80
2017-08-15T02:43:45.649Z,17.90
2017-08-15T02:46:14.618Z,17.90
2017-08-15T02:48:44.376Z,18.00
2017-08-15T02:51:13.332Z,18.00
2017-08-15T02:53:43.068Z,17.90
2017-08-15T02:56:12.244Z,17.90
2017-08-15T02:58:41.229Z,18.00
2017-08-15T03:01:10.977Z,18.00
2017-08-15T03:03:39.918Z,18.00
2017-08-15T03:06:08.912Z,17.90
2017-08-15T03:08:37.858Z,17.80
2017-08-15T03:11:06.815Z,17.80
2017-08-15T03:13:35.763Z,17.60
2017-08-15T03:16:04.730Z,17.60
2017-08-15T03:18:33.691Z,17.60
2017-08-15T03:21:02.666Z,17.60
2017-08-15T03:23:31.647Z,17.50
2017-08-15T03:26:00.625Z,17.40
2017-08-15T03:28:30.397Z,17.30
2017-08-15T03:30:59.345Z,17.30
2017-08-15T03:33:29.095Z,17.30
2017-08-15T03:35:58.073Z,17.30
2017-08-15T03:38:27.012Z,17.30
2017-08-15T03:40:55.997Z,17.20
2017-08-15T03:43:25.023Z,17.10
2017-08-15T03:45:54.004Z,17.10
2017-08-15T03:48:22.945Z,17.10
2017-08-15T03:50:51.933Z,17.00
2017-08-15T03:53:20.888Z,17.10
2017-08-15T03:55:50.626Z,17.00
2017-08-15T03:58:19.577Z,17.00
2017-08-15T04:00:48.558Z,17.00
2017-08-15T04:03:17.512Z,17.00
2017-08-15T04:05:46.504Z,16.90
2017-08-15T04:08:15.466Z,17.00
2017-08-15T04:10:45.180Z,17.00
2017-08-15T04:13:14.153Z,17.00
2017-08-15T04:15:43.875Z,16.80
2017-08-15T04:18:13.619Z,16.90
2017-08-15T04:20:42.614Z,16.80
2017-08-15T04:23:11.551Z,17.00
2017-08-15T04:25:40.524Z,17.00
2017-08-15T04:28:09.491Z,17.00
2017-08-15T04:30:38.450Z,17.00
2017-08-15T04:33:07.425Z,16.90
2017-08-15T04:35:37.189Z,16.90
2017-08-15T04:38:06.150Z,16.90
2017-08-15T04:40:35.102Z,16.90
2017-08-15T04:43:04.076Z,16.80
2017-08-15T04:45:33.080Z,16.80
2017-08-15T04:48:02.150Z,16.80
2017-08-15T04:50:31.114Z,16.80
2017-08-15T04:53:00.087Z,16.80
2017-08-15T04:55:29.056Z,16.80
2017-08-15T04:57:58.005Z,16.80
2017-08-15T05:00:26.982Z,16.70
2017-08-15T05:02:55.936Z,16.70
2017-08-15T05:05:24.909Z,16.80
2017-08-15T05:07:53.870Z,16.90
2017-08-15T05:10:22.961Z,17.00
2017-08-15T05:12:51.918Z,17.10
2017-08-15T05:15:21.653Z,17.30
2017-08-15T05:17:50.601Z,17.20
2017-08-15T05:20:19.594Z,17.40
2017-08-15T05:22:48.552Z,17.50
2017-08-15T05:25:17.549Z,17.70
2017-08-15T05:27:46.584Z,17.80
2017-08-15T05:30:16.353Z,18.00
2017-08-15T05:32:45.316Z,17.90
2017-08-15T05:35:14.393Z,18.00
2017-08-15T05:37:43.335Z,18.10
2017-08-15T05:40:12.313Z,18.20
2017-08-15T05:42:41.263Z,18.30
2017-08-15T05:45:10.368Z,18.50
2017-08-15T05:47:39.310Z,18.50
2017-08-15T05:50:08.303Z,18.60
2017-08-15T05:52:37.277Z,18.60
2017-08-15T05:55:06.240Z,18.70
2017-08-15T05:57:35.187Z,18.70
2017-08-15T06:00:04.163Z,18.80
2017-08-15T06:02:33.104Z,19.00
2017-08-15T06:05:02.214Z,19.00
2017-08-15T06:07:31.494Z,19.00
2017-08-15T06:10:00.467Z,19.10
2017-08-15T06:12:29.432Z,19.10
2017-08-15T06:14:58.405Z,19.20
2017-08-15T06:17:27.861Z,19.40
2017-08-15T06:19:57.393Z,19.50
2017-08-15T06:22:26.410Z,19.50
2017-08-15T06:24:55.449Z,19.60
2017-08-15T06:27:25.006Z,19.70
2017-08-15T06:29:54.032Z,19.80
2017-08-15T06:32:23.005Z,19.90
2017-08-15T06:34:52.046Z,20.00
2017-08-15T06:37:21.669Z,21.00
2017-08-15T06:39:51.351Z,20.20
2017-08-15T06:42:20.550Z,20.20
2017-08-15T06:44:50.206Z,20.30
2017-08-15T06:47:19.185Z,20.50
2017-08-15T06:49:48.292Z,20.60
2017-08-15T06:52:18.287Z,20.80
2017-08-15T06:54:48.095Z,20.90
2017-08-15T06:57:17.952Z,21.00
2017-08-15T06:59:47.105Z,20.90
2017-08-15T07:02:16.173Z,20.90
2017-08-15T07:04:45.164Z,21.00
2017-08-15T07:07:16.298Z,21.30
2017-08-15T07:09:46.072Z,21.30
2017-08-15T07:12:15.832Z,21.50
2017-08-15T07:14:44.842Z,21.60
2017-08-15T07:17:13.814Z,21.70
2017-08-15T07:19:43.665Z,21.80
2017-08-15T07:22:12.631Z,21.90
2017-08-15T07:24:42.398Z,22.10
2017-08-15T07:27:11.373Z,22.10
2017-08-15T07:29:40.381Z,22.30
2017-08-15T07:32:11.119Z,22.50
2017-08-15T07:34:42.737Z,22.60
2017-08-15T07:37:13.160Z,22.50
2017-08-15T07:39:42.119Z,22.50
2017-08-15T07:42:11.124Z,22.70
2017-08-15T07:44:40.674Z,22.80
2017-08-15T07:47:09.633Z,22.90
2017-08-15T07:49:38.642Z,23.00
2017-08-15T07:52:07.650Z,23.20
2017-08-15T07:54:36.721Z,23.20
2017-08-15T07:57:05.730Z,23.30
2017-08-15T07:59:34.715Z,23.50
2017-08-15T08:02:04.448Z,23.60
2017-08-15T08:04:34.336Z,23.90
2017-08-15T08:07:03.369Z,24.00
2017-08-15T08:09:32.320Z,24.20
2017-08-15T08:12:01.307Z,22.40
2017-08-15T08:14:31.500Z,24.30
2017-08-15T08:17:00.997Z,24.40
2017-08-15T08:19:29.969Z,24.30
2017-08-15T08:22:00.741Z,24.10
2017-08-15T08:24:29.709Z,24.00
2017-08-15T08:27:00.371Z,23.90
2017-08-15T08:29:29.344Z,23.80
2017-08-15T08:31:58.338Z,24.00
2017-08-15T08:34:27.827Z,24.30
2017-08-15T08:36:57.569Z,24.60
2017-08-15T08:39:27.216Z,24.60
2017-08-15T08:41:56.200Z,24.80
2017-08-15T08:44:25.164Z,25.00
2017-08-15T08:46:54.671Z,25.00
2017-08-15T08:49:23.644Z,25.00
2017-08-15T08:51:53.098Z,24.90
2017-08-15T08:54:24.096Z,25.10
2017-08-15T08:56:56.491Z,25.20
2017-08-15T08:59:25.458Z,25.20
2017-08-15T09:01:55.206Z,25.30
2017-08-15T09:04:25.009Z,25.20
2017-08-15T09:06:53.961Z,25.40
2017-08-15T09:09:23.718Z,25.20
2017-08-15T09:11:54.344Z,25.20
2017-08-15T09:14:23.983Z,25.30
2017-08-15T09:16:53.708Z,25.00
2017-08-15T09:19:23.439Z,24.90
2017-08-15T09:21:52.402Z,24.90
2017-08-15T09:24:22.152Z,25.40
2017-08-15T09:26:51.129Z,25.40
2017-08-15T09:29:20.112Z,25.60
2017-08-15T09:31:49.166Z,25.50
2017-08-15T09:34:18.133Z,25.60
2017-08-15T09:36:47.124Z,25.90
2017-08-15T09:39:16.086Z,26.00
2017-08-15T09:41:45.035Z,25.90
2017-08-15T09:44:14.076Z,25.40
2017-08-15T09:46:43.029Z,25.00
2017-08-15T09:49:11.983Z,25.00
2017-08-15T09:51:40.945Z,25.20
2017-08-15T09:54:10.119Z,25.00
2017-08-15T09:56:39.061Z,25.10
2017-08-15T09:59:09.230Z,25.20
2017-08-15T10:01:38.991Z,25.60
2017-08-15T10:04:08.720Z,25.60
2017-08-15T10:06:37.693Z,25.80
2017-08-15T10:09:06.678Z,25.70
2017-08-15T10:11:35.653Z,25.60
2017-08-15T10:14:04.608Z,25.50
2017-08-15T10:16:33.620Z,25.30
2017-08-15T10:19:02.577Z,25.30
2017-08-15T10:21:31.557Z,25.40
2017-08-15T10:24:00.576Z,25.60
2017-08-15T10:26:30.695Z,25.80
2017-08-15T10:29:00.349Z,25.80
2017-08-15T10:31:29.338Z,26.00
2017-08-15T10:33:58.293Z,25.90
2017-08-15T10:36:28.033Z,25.90
2017-08-15T10:38:56.985Z,25.90
2017-08-15T10:41:25.970Z,25.90
2017-08-15T10:43:56.379Z,25.80
2017-08-15T10:46:25.339Z,25.50
2017-08-15T10:48:54.333Z,25.50
2017-08-15T10:51:23.343Z,25.60
2017-08-15T10:53:53.251Z,25.60
2017-08-15T10:56:42.940Z,25.80
2017-08-15T10:59:12.090Z,25.80
2017-08-15T11:01:41.071Z,25.80
2017-08-15T11:04:10.781Z,26.00
2017-08-15T11:06:40.532Z,25.90
2017-08-15T11:09:09.484Z,25.80
2017-08-15T11:11:38.444Z,26.10
2017-08-15T11:14:07.407Z,25.90
2017-08-15T11:16:36.386Z,26.00
2017-08-15T11:19:05.337Z,26.10
2017-08-15T11:21:34.313Z,26.60
2017-08-15T11:24:03.332Z,27.00
2017-08-15T11:26:33.919Z,26.30
2017-08-15T11:29:04.592Z,26.30
2017-08-15T11:31:34.349Z,26.40
2017-08-15T11:34:03.298Z,26.40
2017-08-15T11:36:33.502Z,26.70
2017-08-15T11:39:02.527Z,27.20
2017-08-15T11:41:31.491Z,27.10
2017-08-15T11:44:00.460Z,27.20
2017-08-15T11:46:29.427Z,27.10
2017-08-15T11:48:58.410Z,27.20
2017-08-15T11:51:27.384Z,27.10
2017-08-15T11:53:56.478Z,27.20
2017-08-15T11:56:25.448Z,27.60
2017-08-15T11:58:54.416Z,27.00
2017-08-15T12:01:23.408Z,27.00
2017-08-15T12:03:52.370Z,27.00
2017-08-15T12:06:21.328Z,26.80
2017-08-15T12:08:50.288Z,26.80
2017-08-15T12:11:20.112Z,26.80
2017-08-15T12:13:49.077Z,27.20
2017-08-15T12:16:18.692Z,27.60
2017-08-15T12:18:47.633Z,28.10
2017-08-15T12:21:17.550Z,28.20
2017-08-15T12:23:46.523Z,28.20
2017-08-15T12:26:16.261Z,28.10
2017-08-15T12:28:45.239Z,28.10
2017-08-15T12:31:14.955Z,27.80
2017-08-15T12:33:43.897Z,27.60
2017-08-15T12:36:12.887Z,27.80
2017-08-15T12:38:41.888Z,28.30
2017-08-15T12:41:10.865Z,28.60
2017-08-15T12:43:39.824Z,28.20
2017-08-15T12:46:08.803Z,28.10
2017-08-15T12:48:37.773Z,28.30
2017-08-15T12:51:06.759Z,28.90
2017-08-15T12:53:35.837Z,28.80
2017-08-15T12:56:04.786Z,29.00
2017-08-15T12:58:33.746Z,29.50
2017-08-15T13:01:03.513Z,30.30
2017-08-15T13:03:32.465Z,30.20
2017-08-15T13:06:01.436Z,29.50
2017-08-15T13:08:31.173Z,28.50
2017-08-15T13:11:00.151Z,28.50
2017-08-15T13:13:29.892Z,28.10
2017-08-15T13:15:58.872Z,28.00
2017-08-15T13:18:27.803Z,27.80
2017-08-15T13:20:56.750Z,27.80
2017-08-15T13:23:25.787Z,28.50
2017-08-15T13:25:54.733Z,29.10
2017-08-15T13:28:23.705Z,28.90
2017-08-15T13:30:52.740Z,28.20
2017-08-15T13:33:21.838Z,27.90
2017-08-15T13:35:50.804Z,27.70
2017-08-15T13:38:19.836Z,27.70
2017-08-15T13:40:48.792Z,27.90
2017-08-15T13:43:17.809Z,27.60
2017-08-15T13:45:46.753Z,27.40
2017-08-15T13:48:15.840Z,27.20
2017-08-15T13:50:46.203Z,26.90
2017-08-15T13:53:15.188Z,26.90
2017-08-15T13:55:44.124Z,27.00
2017-08-15T13:58:13.098Z,26.60
2017-08-15T14:00:42.100Z,26.40
2017-08-15T14:03:11.075Z,26.40
2017-08-15T14:05:40.014Z,27.30
2017-08-15T14:08:09.108Z,28.00
2017-08-15T14:10:38.818Z,28.20
2017-08-15T14:13:07.809Z,28.20
2017-08-15T14:15:37.512Z,28.70
2017-08-15T14:18:06.545Z,28.70
2017-08-15T14:23:10.640Z,28.90
2017-08-15T14:25:40.358Z,30.50
2017-08-15T14:28:10.100Z,31.90
2017-08-15T14:30:39.033Z,31.80
2017-08-15T14:33:08.021Z,33.10
2017-08-15T14:35:36.973Z,33.10
2017-08-15T14:38:05.964Z,33.30
2017-08-15T14:40:34.919Z,33.20
2017-08-15T14:43:04.681Z,31.60
2017-08-15T14:45:33.617Z,31.50
2017-08-15T14:48:04.107Z,29.50
2017-08-15T14:50:33.082Z,29.50
2017-08-15T14:53:02.073Z,28.90
2017-08-15T14:55:31.024Z,28.40
2017-08-15T14:58:00.858Z,28.20
2017-08-15T15:00:29.802Z,27.90
2017-08-15T15:02:59.545Z,27.30
2017-08-15T15:05:28.501Z,27.30
2017-08-15T15:07:57.455Z,27.10
2017-08-15T15:10:26.415Z,26.90
2017-08-15T15:12:55.376Z,26.50
2017-08-15T15:15:24.384Z,26.40
2017-08-15T15:17:53.356Z,26.20
2017-08-15T15:20:22.315Z,26.00
2017-08-15T15:22:51.279Z,25.80
2017-08-15T15:25:20.287Z,25.70
2017-08-15T15:27:49.267Z,25.70
2017-08-15T15:30:19.126Z,25.70
2017-08-15T15:32:48.140Z,25.60
2017-08-15T15:35:17.092Z,25.50
2017-08-15T15:37:46.048Z,25.20
2017-08-15T15:40:15.848Z,24.60
2017-08-15T15:42:45.584Z,24.50
2017-08-15T15:45:15.429Z,24.40
2017-08-15T15:47:44.702Z,24.20
2017-08-15T15:50:13.648Z,24.10
2017-08-15T15:52:42.650Z,24.00
2017-08-15T15:55:12.377Z,24.10
2017-08-15T15:57:42.135Z,24.10
2017-08-15T16:00:12.157Z,24.00
2017-08-15T16:02:41.124Z,23.90
2017-08-15T16:05:10.075Z,23.80
2017-08-15T16:07:39.858Z,23.80
2017-08-15T16:10:09.688Z,23.70
2017-08-15T16:12:39.635Z,23.80
2017-08-15T16:15:08.609Z,23.80
2017-08-15T16:17:38.350Z,23.70
2017-08-15T16:20:08.164Z,23.60
2017-08-15T16:22:37.130Z,23.80
2017-08-15T16:25:06.076Z,23.80
2017-08-15T16:27:35.045Z,23.80
2017-08-15T16:30:03.996Z,25.00
2017-08-15T16:32:33.767Z,23.70
2017-08-15T16:35:02.708Z,23.70
2017-08-15T16:37:31.662Z,23.60
2017-08-15T16:40:00.658Z,23.60
2017-08-15T16:42:29.644Z,23.50
2017-08-15T16:44:58.580Z,23.40
2017-08-15T16:47:27.559Z,23.40
2017-08-15T16:49:57.268Z,22.50
2017-08-15T16:52:27.028Z,22.20
2017-08-15T16:54:55.992Z,22.20
2017-08-15T16:57:24.940Z,21.80
2017-08-15T16:59:53.932Z,21.60
2017-08-15T17:02:22.880Z,21.30
2017-08-15T17:04:51.854Z,20.90
2017-08-15T17:07:20.808Z,20.60
2017-08-15T17:09:49.788Z,20.60
2017-08-15T17:12:18.805Z,20.40
2017-08-15T17:14:48.564Z,20.50
2017-08-15T17:17:17.508Z,20.50
2017-08-15T17:19:47.233Z,20.40
2017-08-15T17:22:17.034Z,20.30
2017-08-15T17:24:46.786Z,20.30
2017-08-15T17:27:15.754Z,20.30
2017-08-15T17:29:44.721Z,20.30
2017-08-15T17:32:13.671Z,20.30
2017-08-15T17:34:42.657Z,20.30
2017-08-15T17:37:11.627Z,20.20
2017-08-15T17:39:40.606Z,20.10
2017-08-15T17:42:09.903Z,20.20
2017-08-15T17:44:38.901Z,20.10
2017-08-15T17:47:07.857Z,19.80
2017-08-15T17:49:36.829Z,19.70
2017-08-15T17:52:05.836Z,19.60
2017-08-15T17:54:34.822Z,19.50
2017-08-15T17:57:03.776Z,19.60
2017-08-15T17:59:36.560Z,19.50
2017-08-15T18:02:08.995Z,19.30
2017-08-15T18:04:38.744Z,18.90
2017-08-15T18:07:07.714Z,18.90
2017-08-15T18:09:36.705Z,18.80
2017-08-15T18:12:05.681Z,18.70
2017-08-15T18:14:34.646Z,18.60
2017-08-15T18:17:03.635Z,18.50
2017-08-15T18:19:32.602Z,18.50
2017-08-15T18:22:01.548Z,18.40
2017-08-15T18:24:31.293Z,18.20
2017-08-15T18:27:00.272Z,18.20
2017-08-15T18:29:29.261Z,18.10
2017-08-15T18:31:58.216Z,18.00
2017-08-15T18:34:27.214Z,18.00
2017-08-15T18:36:56.954Z,18.20
2017-08-15T18:39:25.935Z,18.10
2017-08-15T18:41:55.743Z,18.30
2017-08-15T18:44:25.497Z,18.40
2017-08-15T18:46:54.508Z,18.40
2017-08-15T18:49:23.501Z,18.30
2017-08-15T18:51:52.512Z,18.20
2017-08-15T18:54:21.521Z,18.00
2017-08-15T18:56:50.494Z,17.90
2017-08-15T18:59:19.469Z,17.90
2017-08-15T19:01:48.480Z,18.00
2017-08-15T19:04:17.449Z,18.10
2017-08-15T19:06:46.465Z,18.20
2017-08-15T19:09:15.515Z,18.20
2017-08-15T19:11:44.557Z,18.40
2017-08-15T19:14:13.632Z,18.50
2017-08-15T19:16:42.685Z,18.40
2017-08-15T19:19:11.744Z,18.50
2017-08-15T19:21:40.716Z,18.50
2017-08-15T19:24:09.809Z,18.60
2017-08-15T19:26:38.772Z,18.60
2017-08-15T19:29:07.791Z,18.50
2017-08-15T19:31:36.796Z,18.50
2017-08-15T19:34:05.804Z,18.50
2017-08-15T19:36:35.582Z,18.50
2017-08-15T19:39:04.691Z,18.50
2017-08-15T19:41:33.746Z,18.50
2017-08-15T19:44:02.705Z,18.40
2017-08-15T19:46:31.725Z,18.30
2017-08-15T19:49:00.727Z,18.30
2017-08-15T19:51:29.774Z,18.10
2017-08-15T19:53:59.539Z,18.20
2017-08-15T19:56:28.598Z,18.20
2017-08-15T19:58:57.573Z,18.20
2017-08-15T20:01:26.575Z,18.30
2017-08-15T20:03:55.522Z,18.40
2017-08-15T20:06:24.533Z,18.30
2017-08-15T20:08:53.492Z,18.40
2017-08-15T20:11:22.491Z,18.30
2017-08-15T20:13:51.469Z,18.30
2017-08-15T20:16:20.479Z,18.20
2017-08-15T20:18:49.454Z,18.30
2017-08-15T20:21:18.420Z,18.20
2017-08-15T20:23:47.414Z,18.30
2017-08-15T20:26:16.492Z,18.10
2017-08-15T20:28:46.196Z,17.90
2017-08-15T20:31:15.181Z,17.90
2017-08-15T20:33:44.132Z,18.10
2017-08-15T20:36:13.105Z,18.10
2017-08-15T20:38:42.947Z,18.00
2017-08-15T20:41:11.893Z,18.00
2017-08-15T20:43:40.879Z,18.20
2017-08-15T20:46:09.849Z,18.20
2017-08-15T20:48:38.838Z,18.20
2017-08-15T20:51:07.791Z,18.20
2017-08-15T20:53:36.762Z,18.10
2017-08-15T20:56:05.705Z,18.10
2017-08-15T20:58:34.670Z,18.10
2017-08-15T21:01:03.652Z,18.00
2017-08-15T21:03:32.634Z,18.00
2017-08-15T21:06:01.613Z,18.10
2017-08-15T21:08:30.586Z,18.00
2017-08-15T21:11:00.319Z,18.00
2017-08-15T21:13:29.286Z,18.00
2017-08-15T21:15:59.006Z,18.00
2017-08-15T21:18:28.797Z,18.10
2017-08-15T21:20:57.763Z,18.00
2017-08-15T21:23:27.469Z,17.90
2017-08-15T21:25:56.457Z,17.90
2017-08-15T21:28:25.446Z,18.00
2017-08-15T21:30:54.403Z,17.90
2017-08-15T21:33:38.379Z,17.80
2017-08-15T21:36:07.362Z,17.70
2017-08-15T21:38:36.338Z,17.60
2017-08-15T21:41:05.303Z,17.70
2017-08-15T21:43:35.028Z,17.90
2017-08-15T21:46:04.054Z,17.90
2017-08-15T21:48:33.022Z,17.90
2017-08-15T21:51:01.965Z,17.80
2017-08-15T21:53:30.978Z,17.80
2017-08-15T21:55:59.948Z,17.80
2017-08-15T21:58:28.893Z,17.70
2017-08-15T22:01:16.607Z,17.70
2017-08-15T22:03:45.560Z,17.70
2017-08-15T22:06:14.533Z,17.70
2017-08-15T22:08:43.517Z,17.60
2017-08-15T22:11:12.486Z,17.60
2017-08-15T22:13:41.463Z,17.70
2017-08-15T22:16:10.401Z,17.60
2017-08-15T22:18:39.381Z,17.50
2017-08-15T22:21:08.581Z,17.50
2017-08-15T22:23:37.528Z,17.40
2017-08-15T22:26:07.309Z,17.40
2017-08-15T22:28:36.304Z,17.40
2017-08-15T22:31:05.286Z,17.40
2017-08-15T22:33:34.262Z,17.50
2017-08-15T22:36:03.257Z,17.60
2017-08-15T22:38:32.221Z,17.50
2017-08-15T22:41:01.209Z,17.60
2017-08-15T22:43:30.170Z,17.60
2017-08-15T22:45:59.913Z,17.70
2017-08-15T22:48:28.874Z,17.70
2017-08-15T22:50:58.637Z,17.70
2017-08-15T22:53:27.616Z,17.60
2017-08-15T22:55:56.591Z,17.60
2017-08-15T22:58:25.600Z,17.60
2017-08-15T23:00:54.587Z,17.70
2017-08-15T23:03:23.540Z,17.80
2017-08-15T23:05:52.534Z,17.50
2017-08-15T23:08:22.291Z,17.60
2017-08-15T23:10:51.250Z,17.60
2017-08-15T23:13:20.247Z,17.60
2017-08-15T23:15:49.196Z,17.60
2017-08-15T23:18:18.188Z,17.60
2017-08-15T23:20:47.144Z,17.70
2017-08-15T23:23:18.940Z,17.70
2017-08-15T23:25:51.143Z,17.60
2017-08-15T23:28:20.886Z,17.40
2017-08-15T23:30:49.853Z,17.40
2017-08-15T23:33:18.842Z,17.30
2017-08-15T23:35:47.813Z,17.30
2017-08-15T23:38:17.573Z,17.30
2017-08-15T23:40:46.542Z,17.30
2017-08-15T23:43:15.520Z,17.30
2017-08-15T23:45:45.244Z,17.60
2017-08-15T23:48:14.255Z,17.50
2017-08-15T23:50:43.224Z,17.50
2017-08-15T23:53:12.189Z,17.50
2017-08-15T23:55:41.963Z,17.50
2017-08-15T23:58:10.954Z,17.50
